Time;durP1;ratioP1;P1;durP2;ratioP2;P2;SDS_P1;SDS_P2;PMS_P1;PMS_P2;Temp;Humidity;BMP_temperature;BMP_pressure;BME280_temperature;BME280_humidity;BME280_pressure;Samples;Min_cycle;Max_cycle;Signal;HPM_P1;HPM_P2
2023/04/18 00:02:15;;;;;;;21.70;14.52;;;6.80;99.90;;;;;;4957745;28;20043;-60
2023/04/18 00:04:44;;;;;;;21.20;14.13;;;6.80;99.90;;;;;;4939141;28;20620;-60
2023/04/18 00:07:13;;;;;;;19.33;14.15;;;6.90;99.90;;;;;;4939711;28;20631;-60
2023/04/18 00:09:42;;;;;;;21.95;14.32;;;6.90;99.90;;;;;;4964809;28;20177;-60
2023/04/18 00:12:09;;;;;;;23.40;14.02;;;6.90;99.90;;;;;;4961333;28;20109;-60
2023/04/18 00:14:36;;;;;;;25.70;15.10;;;6.90;99.90;;;;;;4957239;28;20062;-59
2023/04/18 00:17:07;;;;;;;22.65;14.00;;;6.90;99.90;;;;;;4958046;28;20092;-59
2023/04/18 00:19:33;;;;;;;21.40;14.43;;;6.90;99.90;;;;;;4959133;28;20125;-60
2023/04/18 00:21:59;;;;;;;21.13;14.18;;;6.90;99.90;;;;;;4960396;28;20047;-59
2023/04/18 00:24:25;;;;;;;20.98;14.00;;;6.80;99.90;;;;;;4941783;28;20077;-59
2023/04/18 00:26:50;;;;;;;24.67;14.27;;;6.90;99.90;;;;;;4953722;28;20051;-60
2023/04/18 00:29:16;;;;;;;22.38;13.95;;;6.80;99.90;;;;;;4933980;28;20420;-60
2023/04/18 00:31:42;;;;;;;18.63;13.10;;;6.80;99.90;;;;;;4961055;28;20042;-60
2023/04/18 00:34:08;;;;;;;19.48;13.95;;;6.80;99.90;;;;;;4952585;28;20448;-59
2023/04/18 00:36:33;;;;;;;19.02;12.95;;;6.80;99.90;;;;;;4958926;28;20046;-59
2023/04/18 00:38:59;;;;;;;21.13;12.88;;;6.80;99.90;;;;;;4960463;28;20109;-59
2023/04/18 00:41:27;;;;;;;19.33;13.57;;;6.70;99.90;;;;;;4956800;28;20042;-60
2023/04/18 00:43:53;;;;;;;20.05;13.18;;;6.70;99.90;;;;;;4953556;28;20421;-60
2023/04/18 00:46:19;;;;;;;22.75;12.93;;;6.70;99.90;;;;;;4939794;28;20038;-60
2023/04/18 00:48:46;;;;;;;19.30;12.27;;;6.70;99.90;;;;;;4961703;28;20053;-59
2023/04/18 00:51:13;;;;;;;19.17;12.27;;;6.70;99.90;;;;;;4961693;28;20155;-60
2023/04/18 00:53:40;;;;;;;22.98;12.57;;;6.60;99.90;;;;;;4939888;28;22195;-60
2023/04/18 00:56:06;;;;;;;15.50;12.02;;;6.60;99.90;;;;;;4939374;28;20054;-59
2023/04/18 00:58:32;;;;;;;18.52;12.15;;;6.60;99.90;;;;;;4956973;28;20638;-60
2023/04/18 01:00:58;;;;;;;17.20;11.52;;;6.50;99.90;;;;;;4941186;28;20059;-59
2023/04/18 01:03:27;;;;;;;18.83;12.10;;;6.50;99.90;;;;;;4957892;28;20053;-58
2023/04/18 01:05:54;;;;;;;17.85;11.98;;;6.50;99.90;;;;;;4955740;28;20599;-59
2023/04/18 01:08:20;;;;;;;17.73;11.15;;;6.50;99.90;;;;;;4938680;28;20100;-60
2023/04/18 01:10:47;;;;;;;18.73;11.10;;;6.50;99.90;;;;;;4956063;28;20047;-58
2023/04/18 01:13:14;;;;;;;14.70;10.43;;;6.50;99.90;;;;;;4941946;28;20117;-60
2023/04/18 01:15:48;;;;;;;15.20;10.52;;;6.50;99.90;;;;;;4938320;28;20153;-59
2023/04/18 01:18:16;;;;;;;16.08;10.65;;;6.50;99.90;;;;;;4956867;28;20065;-60
2023/04/18 01:20:47;;;;;;;14.55;10.65;;;6.40;99.90;;;;;;4955471;28;20173;-60
2023/04/18 01:23:13;;;;;;;14.30;10.73;;;6.40;99.90;;;;;;4955851;28;20462;-58
2023/04/18 01:25:40;;;;;;;15.43;10.63;;;6.40;99.90;;;;;;4940325;28;20133;-58
2023/04/18 01:28:06;;;;;;;15.75;11.00;;;6.40;99.90;;;;;;4959467;28;20125;-59
2023/04/18 01:30:34;;;;;;;14.90;10.75;;;6.40;99.90;;;;;;4960114;28;20587;-59
2023/04/18 01:33:01;;;;;;;17.25;10.43;;;6.40;99.90;;;;;;4961320;28;20046;-59
2023/04/18 01:35:27;;;;;;;13.93;9.85;;;6.30;99.90;;;;;;4955116;28;20042;-59
2023/04/18 01:37:53;;;;;;;16.92;10.65;;;6.30;99.90;;;;;;4954198;28;20049;-60
2023/04/18 01:40:19;;;;;;;17.02;10.13;;;6.30;99.90;;;;;;4956973;28;20129;-59
2023/04/18 01:42:45;;;;;;;17.33;10.90;;;6.30;99.90;;;;;;4958365;28;20042;-59
2023/04/18 01:45:12;;;;;;;13.35;9.98;;;6.30;99.90;;;;;;4955359;28;20169;-60
2023/04/18 01:47:37;;;;;;;18.70;9.68;;;6.20;99.90;;;;;;4937174;28;20148;-59
2023/04/18 01:50:04;;;;;;;13.43;9.82;;;6.30;99.90;;;;;;4954209;28;20497;-59
2023/04/18 01:52:29;;;;;;;14.20;10.15;;;6.30;99.90;;;;;;4953184;28;20371;-58
2023/04/18 01:54:55;;;;;;;13.02;9.70;;;6.20;99.90;;;;;;4942623;28;20764;-60
2023/04/18 01:57:21;;;;;;;13.57;9.52;;;6.20;99.90;;;;;;4952936;28;21203;-60
2023/04/18 01:59:47;;;;;;;13.00;9.38;;;6.20;99.90;;;;;;4931784;28;20413;-60
2023/04/18 02:02:12;;;;;;;12.38;9.45;;;6.20;99.90;;;;;;4939323;28;20057;-60
2023/04/18 02:04:38;;;;;;;13.85;9.18;;;6.10;99.90;;;;;;4937993;28;20523;-59
2023/04/18 02:07:04;;;;;;;13.55;9.40;;;6.20;99.90;;;;;;4940107;28;20051;-59
2023/04/18 02:09:30;;;;;;;14.02;8.98;;;6.20;99.90;;;;;;4958357;28;20050;-60
2023/04/18 02:11:58;;;;;;;15.52;9.10;;;6.10;99.90;;;;;;4954539;28;20113;-60
2023/04/18 02:14:25;;;;;;;11.23;8.05;;;6.10;99.90;;;;;;4959787;28;20579;-59
2023/04/18 02:16:51;;;;;;;13.60;8.50;;;6.10;99.90;;;;;;4957118;28;20034;-60
2023/04/18 02:19:17;;;;;;;11.00;8.25;;;6.10;99.90;;;;;;4940394;28;20072;-59
2023/04/18 02:21:43;;;;;;;12.65;8.23;;;6.10;99.90;;;;;;4939277;28;20080;-59
2023/04/18 02:24:09;;;;;;;15.00;8.35;;;6.10;99.90;;;;;;4958754;28;20132;-60
2023/04/18 02:26:35;;;;;;;13.63;8.60;;;6.10;99.90;;;;;;4955714;28;20650;-58
2023/04/18 02:29:00;;;;;;;11.48;8.07;;;6.10;99.90;;;;;;4957002;28;20051;-60
2023/04/18 02:31:27;;;;;;;12.57;8.68;;;6.10;99.90;;;;;;4956202;28;20592;-59
2023/04/18 02:33:52;;;;;;;12.15;8.27;;;6.20;99.90;;;;;;4954614;28;20129;-60
2023/04/18 02:36:18;;;;;;;10.57;8.13;;;6.20;99.90;;;;;;4940310;28;20065;-58
2023/04/18 02:38:44;;;;;;;13.75;8.43;;;6.20;99.90;;;;;;4940456;28;20038;-59
2023/04/18 02:41:13;;;;;;;10.55;8.02;;;6.20;99.90;;;;;;4945684;28;20077;-59
2023/04/18 02:43:40;;;;;;;15.35;8.70;;;6.30;99.90;;;;;;4955846;28;20050;-59
2023/04/18 02:46:06;;;;;;;11.88;7.78;;;6.30;99.90;;;;;;4959279;28;20132;-60
2023/04/18 02:48:31;;;;;;;12.18;8.15;;;6.30;99.90;;;;;;4956065;28;20046;-60
2023/04/18 02:51:04;;;;;;;11.27;8.25;;;6.40;99.90;;;;;;4962950;28;20055;-60
2023/04/18 02:53:31;;;;;;;12.20;8.48;;;6.40;99.90;;;;;;4954771;28;20588;-59
2023/04/18 02:55:56;;;;;;;11.45;8.30;;;6.40;99.90;;;;;;4941704;28;20548;-59
2023/04/18 02:58:22;;;;;;;12.38;8.05;;;6.40;99.90;;;;;;4941154;28;20050;-61
2023/04/18 03:00:51;;;;;;;13.05;8.40;;;6.50;99.90;;;;;;4963425;28;20054;-57
2023/04/18 03:03:17;;;;;;;11.00;7.85;;;6.50;99.90;;;;;;4954027;28;20447;-59
2023/04/18 03:05:43;;;;;;;11.13;8.07;;;6.50;99.90;;;;;;4945582;28;20092;-60
2023/04/18 03:08:08;;;;;;;14.35;8.48;;;6.50;99.90;;;;;;4964845;28;20042;-59
2023/04/18 03:10:34;;;;;;;10.27;8.10;;;6.60;99.90;;;;;;4952033;28;20042;-59
2023/04/18 03:13:00;;;;;;;11.57;7.88;;;6.60;99.90;;;;;;4964427;28;20061;-60
2023/04/18 03:15:27;;;;;;;11.15;7.85;;;6.60;99.90;;;;;;4944070;28;20531;-58
2023/04/18 03:17:52;;;;;;;11.70;7.82;;;6.60;99.90;;;;;;4944967;28;20129;-60
2023/04/18 03:20:18;;;;;;;10.75;7.93;;;6.60;99.90;;;;;;4963868;28;20060;-58
2023/04/18 03:22:44;;;;;;;12.80;7.93;;;6.60;99.90;;;;;;4946752;28;20073;-60
2023/04/18 03:25:10;;;;;;;11.63;7.95;;;6.60;99.90;;;;;;4961155;28;20133;-60
2023/04/18 03:27:35;;;;;;;10.32;7.70;;;6.70;99.90;;;;;;4962281;28;20498;-60
2023/04/18 03:30:02;;;;;;;12.82;7.93;;;6.70;99.90;;;;;;4936634;28;20097;-60
2023/04/18 03:32:27;;;;;;;9.93;7.80;;;6.70;99.90;;;;;;4949313;28;20078;-61
2023/04/18 03:34:53;;;;;;;11.30;8.20;;;6.70;99.90;;;;;;4948444;28;20048;-59
2023/04/18 03:37:19;;;;;;;13.65;8.45;;;6.70;99.90;;;;;;4952038;28;20100;-61
2023/04/18 03:39:44;;;;;;;10.05;7.70;;;6.70;99.90;;;;;;4957327;28;20046;-59
2023/04/18 03:42:10;;;;;;;10.88;8.40;;;6.70;99.90;;;;;;4952858;28;20059;-59
2023/04/18 03:44:36;;;;;;;11.95;8.30;;;6.80;99.90;;;;;;4952574;28;20125;-58
2023/04/18 03:47:02;;;;;;;11.38;8.07;;;6.80;99.90;;;;;;4938343;28;20119;-60
2023/04/18 03:49:27;;;;;;;10.98;7.85;;;6.80;99.90;;;;;;4955425;28;20050;-59
2023/04/18 03:51:53;;;;;;;10.88;7.95;;;6.80;99.90;;;;;;4956188;28;20147;-59
2023/04/18 03:54:19;;;;;;;12.27;8.48;;;6.80;99.90;;;;;;4952127;28;20585;-59
2023/04/18 03:56:45;;;;;;;13.82;8.60;;;6.80;99.90;;;;;;4950926;28;21204;-59
2023/04/18 03:59:11;;;;;;;10.63;8.00;;;6.80;99.90;;;;;;4932224;28;20046;-60
2023/04/18 04:01:37;;;;;;;14.20;8.15;;;6.80;99.90;;;;;;4953180;28;20045;-59
2023/04/18 04:04:03;;;;;;;13.32;8.45;;;6.80;99.90;;;;;;4956787;28;20050;-59
2023/04/18 04:06:30;;;;;;;15.55;8.60;;;6.90;99.90;;;;;;4956877;28;20076;-59
2023/04/18 04:08:56;;;;;;;14.63;7.65;;;6.90;99.90;;;;;;4948869;28;20452;-58
2023/04/18 04:11:22;;;;;;;11.13;8.50;;;6.90;99.90;;;;;;4954240;28;20050;-60
2023/04/18 04:13:48;;;;;;;11.07;7.95;;;6.90;99.90;;;;;;4945988;28;20724;-59
2023/04/18 04:16:14;;;;;;;11.80;8.38;;;6.90;99.90;;;;;;4955718;28;20058;-60
2023/04/18 04:18:39;;;;;;;14.15;8.43;;;6.90;99.90;;;;;;4955233;28;20735;-60
2023/04/18 04:21:05;;;;;;;14.18;8.20;;;6.90;99.90;;;;;;4944932;28;20042;-60
2023/04/18 04:23:32;;;;;;;12.15;8.88;;;6.90;99.90;;;;;;4953320;28;20050;-60
2023/04/18 04:26:01;;;;;;;12.27;8.75;;;6.90;99.90;;;;;;4949562;28;20042;-60
2023/04/18 04:28:27;;;;;;;13.73;9.05;;;6.90;99.90;;;;;;4953901;28;20046;-60
2023/04/18 04:30:54;;;;;;;12.85;9.30;;;6.90;99.90;;;;;;4938791;28;20141;-59
2023/04/18 04:33:23;;;;;;;13.95;9.55;;;6.90;99.90;;;;;;4954080;28;20112;-60
2023/04/18 04:35:51;;;;;;;12.85;9.93;;;6.90;99.90;;;;;;4953673;28;20045;-60
2023/04/18 04:38:18;;;;;;;18.20;8.73;;;6.90;99.90;;;;;;4940684;28;20056;-61
2023/04/18 04:40:45;;;;;;;14.73;8.70;;;6.90;99.90;;;;;;4942201;28;20127;-60
2023/04/18 04:43:11;;;;;;;15.52;9.57;;;6.90;99.90;;;;;;4944470;28;22037;-60
2023/04/18 04:45:40;;;;;;;13.18;8.98;;;7.00;99.90;;;;;;4957827;28;20058;-59
2023/04/18 04:48:09;;;;;;;13.18;9.55;;;7.00;99.90;;;;;;4958053;28;20058;-60
2023/04/18 04:50:37;;;;;;;15.65;9.85;;;7.00;99.90;;;;;;4951605;28;21126;-60
2023/04/18 04:53:03;;;;;;;15.02;10.00;;;7.00;99.90;;;;;;4935566;28;20632;-60
2023/04/18 04:55:29;;;;;;;16.88;9.38;;;7.00;99.90;;;;;;4953793;28;20112;-59
2023/04/18 04:57:56;;;;;;;14.77;9.60;;;7.00;99.90;;;;;;4952423;28;20092;-60
2023/04/18 05:00:22;;;;;;;13.88;9.93;;;7.00;99.90;;;;;;4952237;28;20062;-60
2023/04/18 05:02:48;;;;;;;14.10;9.80;;;7.00;99.90;;;;;;4952689;28;20808;-59
2023/04/18 05:05:14;;;;;;;15.50;10.68;;;7.00;99.90;;;;;;4926283;28;20512;-60
2023/04/18 05:07:40;;;;;;;14.18;10.20;;;7.00;99.90;;;;;;4941700;28;20113;-60
2023/04/18 05:10:06;;;;;;;13.23;10.45;;;7.00;99.90;;;;;;4954356;28;20467;-60
2023/04/18 05:12:31;;;;;;;15.13;10.38;;;7.00;99.90;;;;;;4952842;28;20404;-60
2023/04/18 05:14:57;;;;;;;13.68;10.23;;;7.10;99.90;;;;;;4950276;28;20053;-59
2023/04/18 05:17:23;;;;;;;16.35;10.52;;;7.10;99.90;;;;;;4932958;28;20113;-60
2023/04/18 05:19:48;;;;;;;15.18;10.65;;;7.10;99.90;;;;;;4936813;28;20042;-59
2023/04/18 05:22:14;;;;;;;14.27;10.50;;;7.10;99.90;;;;;;4922487;28;20084;-60
2023/04/18 05:24:40;;;;;;;16.42;11.13;;;7.10;99.90;;;;;;4943271;28;20054;-59
2023/04/18 05:27:06;;;;;;;18.35;10.85;;;7.10;99.90;;;;;;4918445;28;20200;-60
2023/04/18 05:29:32;;;;;;;14.50;10.27;;;7.10;99.90;;;;;;4936358;28;20046;-58
2023/04/18 05:31:57;;;;;;;15.00;10.57;;;7.20;99.90;;;;;;4929054;28;20397;-60
2023/04/18 05:34:23;;;;;;;13.82;10.38;;;7.20;99.90;;;;;;4951583;28;20078;-60
2023/04/18 05:36:49;;;;;;;16.85;10.30;;;7.20;99.90;;;;;;4947406;28;20042;-59
2023/04/18 05:39:15;;;;;;;14.07;10.50;;;7.20;99.90;;;;;;4953397;28;20421;-60
2023/04/18 05:41:41;;;;;;;14.95;10.90;;;7.20;99.90;;;;;;4951161;28;20070;-60
2023/04/18 05:44:07;;;;;;;13.50;10.45;;;7.30;99.90;;;;;;4933969;28;20579;-60
2023/04/18 05:46:33;;;;;;;14.10;10.50;;;7.20;99.90;;;;;;4940435;28;20054;-60
2023/04/18 05:48:59;;;;;;;14.32;10.52;;;7.30;99.90;;;;;;4951530;28;20740;-59
2023/04/18 05:51:27;;;;;;;13.98;10.15;;;7.40;99.90;;;;;;4948388;28;20058;-59
2023/04/18 05:53:53;;;;;;;19.00;10.13;;;7.40;99.90;;;;;;4945812;28;20058;-59
2023/04/18 05:56:19;;;;;;;17.35;10.65;;;7.40;99.90;;;;;;4951190;28;20058;-61
2023/04/18 05:58:46;;;;;;;13.25;10.20;;;7.40;99.90;;;;;;4952141;28;20049;-59
2023/04/18 06:01:17;;;;;;;16.40;10.88;;;7.40;99.90;;;;;;4955540;28;20089;-60
2023/04/18 06:03:43;;;;;;;18.10;10.30;;;7.40;99.90;;;;;;4935647;28;20086;-60
2023/04/18 06:06:09;;;;;;;16.50;10.10;;;7.50;99.90;;;;;;4924918;28;20047;-61
2023/04/18 06:08:37;;;;;;;16.05;10.88;;;7.50;99.90;;;;;;4943119;28;20051;-60
2023/04/18 06:11:03;;;;;;;14.07;10.07;;;7.60;99.90;;;;;;4948791;28;20088;-60
2023/04/18 06:13:29;;;;;;;15.10;10.27;;;7.70;99.90;;;;;;4953404;28;20050;-59
2023/04/18 06:15:55;;;;;;;14.52;9.88;;;7.70;99.90;;;;;;4942402;28;20053;-60
2023/04/18 06:18:20;;;;;;;16.15;9.90;;;7.70;99.90;;;;;;4958223;28;20081;-59
2023/04/18 06:20:46;;;;;;;15.90;9.82;;;7.70;99.90;;;;;;4951892;28;20046;-59
2023/04/18 06:23:12;;;;;;;18.98;9.93;;;7.70;99.90;;;;;;4952010;28;20477;-59
2023/04/18 06:25:40;;;;;;;17.23;9.43;;;7.70;99.90;;;;;;4955010;28;20054;-58
2023/04/18 06:28:06;;;;;;;13.63;9.65;;;7.70;99.90;;;;;;4931992;28;20089;-60
2023/04/18 06:30:31;;;;;;;12.18;9.43;;;7.70;99.90;;;;;;4951738;28;20050;-59
2023/04/18 06:32:57;;;;;;;12.05;9.20;;;7.70;99.90;;;;;;4944138;28;20186;-59
2023/04/18 06:35:23;;;;;;;16.67;9.80;;;7.70;99.90;;;;;;4934241;28;20487;-60
2023/04/18 06:37:48;;;;;;;12.40;9.40;;;7.70;99.90;;;;;;4951364;28;20045;-60
2023/04/18 06:40:14;;;;;;;13.38;9.38;;;7.70;99.90;;;;;;4944221;28;20672;-60
2023/04/18 06:42:41;;;;;;;28.17;10.70;;;7.80;99.90;;;;;;4935326;28;21895;-60
2023/04/18 06:45:09;;;;;;;13.70;9.30;;;7.80;99.90;;;;;;4950850;28;20054;-60
2023/04/18 06:47:35;;;;;;;14.77;9.30;;;7.80;99.90;;;;;;4950311;28;20504;-60
2023/04/18 06:50:01;;;;;;;12.27;8.93;;;7.80;99.90;;;;;;4952996;28;20086;-60
2023/04/18 06:52:26;;;;;;;15.23;9.43;;;7.90;99.90;;;;;;4934750;28;20476;-60
2023/04/18 06:54:52;;;;;;;16.52;10.00;;;7.90;99.90;;;;;;4946906;28;20168;-60
2023/04/18 06:57:18;;;;;;;14.07;9.27;;;7.90;99.90;;;;;;4929146;28;20583;-60
2023/04/18 06:59:43;;;;;;;17.23;9.07;;;8.00;99.90;;;;;;4950503;28;20132;-60
2023/04/18 07:02:09;;;;;;;14.63;9.23;;;8.10;99.90;;;;;;4949767;28;20365;-60
2023/04/18 07:04:35;;;;;;;14.65;9.85;;;8.10;99.90;;;;;;4948422;28;20046;-60
2023/04/18 07:07:02;;;;;;;13.82;9.70;;;8.20;99.90;;;;;;4953354;28;20539;-60
2023/04/18 07:09:28;;;;;;;16.15;9.27;;;8.20;99.90;;;;;;4946423;28;20061;-60
2023/04/18 07:11:54;;;;;;;16.27;9.32;;;8.30;99.90;;;;;;4946210;28;20051;-61
2023/04/18 07:14:23;;;;;;;15.48;10.40;;;8.30;99.90;;;;;;4950658;28;20046;-59
2023/04/18 07:16:50;;;;;;;12.85;9.82;;;8.30;99.90;;;;;;4935126;28;20421;-60
2023/04/18 07:19:16;;;;;;;16.33;9.80;;;8.40;99.90;;;;;;4939533;28;20046;-60
2023/04/18 07:21:43;;;;;;;13.75;10.23;;;8.50;99.90;;;;;;4947962;28;20042;-60
2023/04/18 07:24:10;;;;;;;13.82;9.25;;;8.50;99.90;;;;;;4931376;28;20050;-61
2023/04/18 07:26:36;;;;;;;15.73;9.75;;;8.60;99.90;;;;;;4947813;28;20133;-61
2023/04/18 07:29:02;;;;;;;15.52;10.50;;;8.70;99.90;;;;;;4947758;28;20053;-60
2023/04/18 07:31:30;;;;;;;15.43;9.45;;;8.70;99.90;;;;;;4948944;28;20038;-60
2023/04/18 07:33:56;;;;;;;18.00;9.55;;;8.80;99.90;;;;;;4949635;28;20409;-60
2023/04/18 07:36:22;;;;;;;15.25;9.93;;;8.90;99.90;;;;;;4950116;28;20078;-60
2023/04/18 07:38:48;;;;;;;17.92;10.68;;;9.00;99.90;;;;;;4947290;28;20068;-60
2023/04/18 07:41:14;;;;;;;16.05;9.93;;;9.00;99.90;;;;;;4929850;28;20111;-60
2023/04/18 07:43:40;;;;;;;13.70;10.10;;;9.10;99.90;;;;;;4921300;28;20077;-59
2023/04/18 07:46:06;;;;;;;12.75;9.60;;;9.20;99.90;;;;;;4948332;28;20122;-60
2023/04/18 07:48:32;;;;;;;13.63;9.70;;;9.30;99.90;;;;;;4955905;28;20086;-60
2023/04/18 07:50:58;;;;;;;12.20;9.35;;;9.40;99.90;;;;;;4935240;28;20042;-60
2023/04/18 07:53:24;;;;;;;15.25;10.48;;;9.50;99.90;;;;;;4927152;28;20049;-59
2023/04/18 07:55:50;;;;;;;14.77;9.57;;;9.60;99.90;;;;;;4945691;28;20610;-60
2023/04/18 07:58:16;;;;;;;13.57;9.27;;;9.70;99.90;;;;;;4948079;28;20084;-61
2023/04/18 08:00:43;;;;;;;16.73;9.70;;;9.70;99.90;;;;;;4947076;28;20050;-60
2023/04/18 08:03:10;;;;;;;13.45;9.45;;;9.80;99.90;;;;;;4949223;28;20050;-60
2023/04/18 08:05:40;;;;;;;13.48;9.68;;;9.90;99.90;;;;;;4949728;28;20443;-61
2023/04/18 08:08:08;;;;;;;14.85;9.48;;;10.00;99.90;;;;;;4953865;28;20050;-59
2023/04/18 08:10:34;;;;;;;19.50;9.52;;;10.10;99.90;;;;;;4933661;28;20534;-60
2023/04/18 08:13:00;;;;;;;14.73;9.65;;;10.10;99.90;;;;;;4934406;28;20410;-60
2023/04/18 08:15:31;;;;;;;15.40;9.93;;;10.20;99.90;;;;;;4947713;28;20149;-59
2023/04/18 08:17:57;;;;;;;14.32;8.95;;;10.30;99.90;;;;;;4954387;28;20042;-60
2023/04/18 08:20:23;;;;;;;13.88;8.77;;;10.40;99.90;;;;;;4950016;28;20793;-61
2023/04/18 08:22:49;;;;;;;14.07;8.82;;;10.50;99.90;;;;;;4936524;28;20050;-60
2023/04/18 08:25:16;;;;;;;12.73;8.80;;;10.60;99.90;;;;;;4934864;28;20057;-59
2023/04/18 08:27:42;;;;;;;12.57;8.50;;;10.70;99.90;;;;;;4931151;28;20078;-60
2023/04/18 08:30:08;;;;;;;14.25;8.85;;;10.70;99.90;;;;;;4950633;28;20054;-59
2023/04/18 08:32:37;;;;;;;15.57;8.60;;;10.80;99.80;;;;;;4931251;28;20189;-61
2023/04/18 08:35:03;;;;;;;12.23;8.60;;;10.90;99.70;;;;;;4937706;28;20124;-61
2023/04/18 08:37:30;;;;;;;12.13;7.88;;;11.00;99.60;;;;;;4952277;28;20050;-61
2023/04/18 08:39:56;;;;;;;13.90;8.57;;;11.10;99.40;;;;;;4933157;28;20653;-60
2023/04/18 08:42:22;;;;;;;12.35;8.10;;;11.20;99.00;;;;;;4933144;28;20080;-61
2023/04/18 08:44:48;;;;;;;15.10;9.18;;;11.30;97.40;;;;;;4951666;28;20049;-60
2023/04/18 08:47:15;;;;;;;18.17;9.00;;;11.30;97.10;;;;;;4959212;28;20070;-60
2023/04/18 08:49:45;;;;;;;12.95;8.25;;;11.40;97.00;;;;;;4938339;28;20164;-60
2023/04/18 08:52:18;;;;;;;13.98;8.60;;;11.40;97.30;;;;;;4923790;28;20627;-60
2023/04/18 08:54:45;;;;;;;13.02;8.38;;;11.50;95.90;;;;;;4943110;28;20060;-60
2023/04/18 08:57:15;;;;;;;14.00;8.05;;;11.60;95.80;;;;;;4955651;28;20058;-61
2023/04/18 08:59:44;;;;;;;12.82;8.18;;;11.60;95.40;;;;;;4954349;28;20072;-58
2023/04/18 09:02:11;;;;;;;12.15;7.53;;;11.70;94.90;;;;;;4939334;28;20042;-61
2023/04/18 09:04:39;;;;;;;14.52;7.90;;;11.80;94.70;;;;;;4943051;28;20046;-60
2023/04/18 09:07:08;;;;;;;12.02;7.57;;;11.80;94.00;;;;;;4957493;28;20050;-59
2023/04/18 09:09:47;;;;;;;16.45;7.47;;;11.90;94.00;;;;;;4939696;28;20054;-59
2023/04/18 09:12:31;;;;;;;11.45;7.88;;;12.00;94.10;;;;;;4940042;28;20074;-60
2023/04/18 09:15:12;;;;;;;13.60;8.00;;;12.10;93.90;;;;;;4955312;28;20053;-60
2023/04/18 09:17:42;;;;;;;10.27;7.22;;;12.30;93.70;;;;;;4956704;28;20105;-59
2023/04/18 09:20:10;;;;;;;10.75;6.85;;;12.30;92.90;;;;;;4939260;28;20594;-60
2023/04/18 09:23:03;;;;;;;12.30;7.00;;;12.40;92.60;;;;;;4933552;28;20054;-58
2023/04/18 09:25:41;;;;;;;9.23;6.53;;;12.50;92.60;;;;;;4952967;28;20464;-60
2023/04/18 09:28:27;;;;;;;11.43;6.90;;;12.50;91.40;;;;;;4953944;28;20055;-60
2023/04/18 09:30:55;;;;;;;11.27;6.85;;;12.50;91.20;;;;;;4956844;28;20042;-61
2023/04/18 09:33:32;;;;;;;11.88;7.07;;;12.50;90.80;;;;;;4961530;28;22100;-60
2023/04/18 09:36:16;;;;;;;9.75;6.68;;;12.60;91.50;;;;;;4956467;28;20042;-60
2023/04/18 09:38:42;;;;;;;8.43;6.25;;;12.70;91.10;;;;;;4957961;28;20054;-61
2023/04/18 09:41:11;;;;;;;11.07;6.75;;;12.70;90.00;;;;;;4939782;28;20046;-60
2023/04/18 09:43:38;;;;;;;11.27;7.07;;;12.70;90.00;;;;;;4940857;28;20513;-60
2023/04/18 09:46:04;;;;;;;8.15;6.72;;;12.70;90.30;;;;;;4955773;28;20042;-61
2023/04/18 09:48:30;;;;;;;10.02;6.53;;;12.70;89.30;;;;;;4955772;28;20081;-59
2023/04/18 09:50:58;;;;;;;10.18;7.03;;;12.80;89.80;;;;;;4928119;28;20417;-60
2023/04/18 09:53:24;;;;;;;13.93;6.72;;;12.80;90.30;;;;;;4954525;28;20126;-60
2023/04/18 09:55:53;;;;;;;9.00;7.15;;;12.90;90.90;;;;;;4938385;28;20452;-60
2023/04/18 09:58:24;;;;;;;8.63;6.57;;;13.00;90.60;;;;;;4937892;28;20494;-58
2023/04/18 10:00:52;;;;;;;10.35;6.03;;;13.10;90.70;;;;;;4923088;28;20070;-60
2023/04/18 10:03:21;;;;;;;7.85;6.32;;;13.10;90.50;;;;;;4938997;28;20412;-60
2023/04/18 10:05:47;;;;;;;8.02;6.47;;;13.20;91.00;;;;;;4938454;28;20553;-60
2023/04/18 10:08:13;;;;;;;9.43;5.82;;;13.40;91.60;;;;;;4937396;28;20054;-60
2023/04/18 10:10:39;;;;;;;9.05;6.28;;;13.50;90.80;;;;;;4937129;28;20526;-61
2023/04/18 10:13:10;;;;;;;10.20;6.00;;;13.60;89.40;;;;;;4938965;28;20052;-60
2023/04/18 10:15:37;;;;;;;8.68;5.55;;;13.60;89.50;;;;;;4918539;28;20075;-60
2023/04/18 10:18:08;;;;;;;11.02;6.10;;;13.70;89.70;;;;;;4940395;28;20038;-60
2023/04/18 10:20:34;;;;;;;9.23;5.70;;;13.70;89.70;;;;;;4938892;28;20053;-59
2023/04/18 10:23:36;;;;;;;8.10;5.35;;;13.80;90.00;;;;;;4939356;28;20503;-61
2023/04/18 10:26:06;;;;;;;8.50;6.22;;;13.90;87.30;;;;;;4937252;28;20103;-60
2023/04/18 10:28:52;;;;;;;9.20;5.80;;;13.80;88.30;;;;;;4939649;28;20038;-60
2023/04/18 10:31:18;;;;;;;12.65;5.50;;;13.90;88.90;;;;;;4935126;28;20086;-60
2023/04/18 10:33:55;;;;;;;13.50;5.95;;;13.90;87.80;;;;;;4935956;28;20501;-60
2023/04/18 10:36:21;;;;;;;8.40;5.80;;;14.10;89.80;;;;;;4937109;28;20046;-60
2023/04/18 10:38:48;;;;;;;8.13;6.03;;;14.20;89.70;;;;;;4937281;28;20085;-60
2023/04/18 10:41:15;;;;;;;7.68;5.68;;;14.30;89.60;;;;;;4938943;28;20643;-61
2023/04/18 10:44:03;;;;;;;11.50;6.10;;;14.40;89.80;;;;;;4944055;28;20814;-61
2023/04/18 10:46:29;;;;;;;7.75;5.63;;;14.50;89.50;;;;;;4938417;28;20643;-60
2023/04/18 10:49:27;;;;;;;10.20;6.20;;;14.60;89.60;;;;;;4941012;28;20045;-60
2023/04/18 10:51:58;;;;;;;11.60;5.93;;;14.80;86.50;;;;;;4929783;28;20065;-61
2023/04/18 10:54:37;;;;;;;8.23;5.90;;;14.70;85.30;;;;;;4946294;28;20084;-60
2023/04/18 10:57:07;;;;;;;9.73;6.05;;;14.70;85.90;;;;;;4945090;28;20074;-60
2023/04/18 10:59:37;;;;;;;7.82;6.25;;;14.60;86.80;;;;;;4963101;28;20053;-61
2023/04/18 11:02:24;;;;;;;8.48;6.00;;;14.70;87.10;;;;;;4933468;28;20184;-60
2023/04/18 11:04:51;;;;;;;8.00;5.53;;;14.80;87.30;;;;;;4956566;28;20185;-61
2023/04/18 11:07:17;;;;;;;7.75;6.20;;;14.90;86.90;;;;;;4954087;28;20141;-61
2023/04/18 11:09:53;;;;;;;8.63;6.03;;;14.90;84.90;;;;;;4958278;28;20393;-60
2023/04/18 11:12:19;;;;;;;10.25;5.78;;;14.90;86.60;;;;;;4929159;28;20219;-60
2023/04/18 11:14:53;;;;;;;8.95;6.18;;;15.00;87.00;;;;;;4945431;28;20552;-59
2023/04/18 11:17:23;;;;;;;10.10;6.32;;;15.10;86.10;;;;;;4960464;28;20054;-59
2023/04/18 11:19:50;;;;;;;8.07;5.80;;;15.10;84.90;;;;;;4958474;28;20153;-61
2023/04/18 11:22:17;;;;;;;8.35;6.03;;;15.10;84.60;;;;;;4934231;28;21131;-61
2023/04/18 11:24:44;;;;;;;7.07;5.28;;;15.10;84.60;;;;;;4938801;28;20753;-60
2023/04/18 11:27:11;;;;;;;8.45;5.30;;;15.10;84.40;;;;;;4957495;28;20061;-60
2023/04/18 11:29:37;;;;;;;8.77;5.55;;;15.20;83.70;;;;;;4963820;28;20061;-60
2023/04/18 11:32:07;;;;;;;7.30;4.70;;;15.20;84.00;;;;;;4939715;28;20078;-60
2023/04/18 11:34:34;;;;;;;8.15;5.10;;;15.40;85.50;;;;;;4935716;28;20121;-60
2023/04/18 11:37:04;;;;;;;6.47;4.47;;;15.50;83.90;;;;;;4954067;28;20497;-60
2023/04/18 11:39:35;;;;;;;9.73;4.90;;;15.50;82.00;;;;;;4957605;28;20043;-60
2023/04/18 11:42:00;;;;;;;5.22;4.32;;;15.60;81.80;;;;;;4954747;28;20105;-61
2023/04/18 11:44:26;;;;;;;6.72;4.63;;;15.60;81.30;;;;;;4955302;28;20637;-59
2023/04/18 11:46:52;;;;;;;7.65;4.20;;;15.80;81.70;;;;;;4955793;28;20886;-60
2023/04/18 11:49:31;;;;;;;6.07;4.40;;;15.90;81.10;;;;;;4952528;28;20057;-60
2023/04/18 11:51:58;;;;;;;5.07;4.00;;;16.00;79.60;;;;;;4954973;28;20043;-60
2023/04/18 11:54:41;;;;;;;5.68;4.07;;;16.10;79.40;;;;;;4952916;28;20411;-60
2023/04/18 11:57:20;;;;;;;;;;;16.20;78.90;;;;;;4933920;28;20102;-60
2023/04/18 11:59:51;;;;;;;9.00;4.13;;;16.20;79.40;;;;;;4955052;28;19926;-60
2023/04/18 12:02:17;;;;;;;7.53;4.07;;;16.30;79.70;;;;;;4960350;28;20051;-60
2023/04/18 12:05:23;;;;;;;6.28;3.75;;;16.40;78.10;;;;;;4959591;28;20500;-59
2023/04/18 12:07:49;;;;;;;5.07;3.80;;;16.30;76.60;;;;;;4929687;28;20081;-61
2023/04/18 12:10:26;;;;;;;3.88;3.47;;;16.30;76.80;;;;;;4956088;28;20049;-60
2023/04/18 12:12:53;;;;;;;9.32;3.83;;;16.30;76.70;;;;;;4942047;28;20111;-60
2023/04/18 12:15:22;;;;;;;3.47;3.17;;;16.40;76.40;;;;;;4954342;28;20080;-60
2023/04/18 12:17:50;;;;;;;7.93;3.50;;;16.50;75.30;;;;;;4952940;28;20773;-60
2023/04/18 12:20:17;;;;;;;3.47;3.10;;;16.40;74.30;;;;;;4954170;28;20409;-60
2023/04/18 12:22:48;;;;;;;5.55;3.28;;;16.50;75.70;;;;;;4940913;28;20153;-61
2023/04/18 12:25:23;;;;;;;5.60;3.13;;;16.60;73.50;;;;;;4952698;28;20047;-60
2023/04/18 12:27:49;;;;;;;5.18;3.22;;;16.70;72.80;;;;;;4951659;28;20455;-60
2023/04/18 12:30:16;;;;;;;5.72;3.30;;;16.70;73.20;;;;;;4938641;28;20046;-60
2023/04/18 12:32:43;;;;;;;4.15;3.50;;;16.70;72.60;;;;;;4958684;28;20398;-60
2023/04/18 12:35:09;;;;;;;4.68;3.47;;;16.60;73.30;;;;;;4958607;28;20057;-60
2023/04/18 12:37:35;;;;;;;6.00;3.80;;;16.60;73.60;;;;;;4949665;28;20064;-60
2023/04/18 12:40:00;;;;;;;4.18;3.60;;;16.80;74.30;;;;;;4950011;28;20057;-61
2023/04/18 12:42:26;;;;;;;4.97;3.47;;;17.00;73.50;;;;;;4947011;28;20367;-59
2023/04/18 12:44:52;;;;;;;3.70;3.40;;;17.10;72.90;;;;;;4952233;28;20413;-60
2023/04/18 12:47:18;;;;;;;4.10;3.28;;;17.10;71.60;;;;;;4957014;28;20050;-60